createdAt,value
2018-09-08T00:00:36.143Z,92.34
2018-09-08T00:02:19.703Z,92.85
2018-09-08T00:03:59.742Z,93.02
2018-09-08T00:05:38.797Z,92.94
2018-09-08T00:07:21.098Z,93.08
2018-09-08T00:08:57.002Z,92.98
2018-09-08T00:10:33.103Z,93.20
2018-09-08T00:12:14.676Z,92.94
2018-09-08T00:13:52.738Z,92.80
2018-09-08T00:15:33.600Z,92.76
2018-09-08T00:17:13.571Z,93.17
2018-09-08T00:18:55.196Z,93.56
2018-09-08T00:20:35.539Z,92.92
2018-09-08T00:22:15.777Z,93.22
2018-09-08T00:23:56.684Z,93.08
2018-09-08T00:25:37.456Z,93.31
2018-09-08T00:27:15.513Z,93.82
2018-09-08T00:29:02.544Z,93.43
2018-09-08T00:30:38.091Z,92.71
2018-09-08T00:32:16.010Z,93.38
2018-09-08T00:33:52.123Z,93.46
2018-09-08T00:35:28.693Z,93.45
2018-09-08T00:37:03.896Z,93.24
2018-09-08T00:38:39.277Z,93.56
2018-09-08T00:40:17.944Z,93.59
2018-09-08T00:41:55.540Z,93.28
2018-09-08T00:43:31.786Z,93.85
2018-09-08T00:45:07.633Z,94.05
2018-09-08T00:47:46.118Z,93.29
2018-09-08T00:49:22.086Z,93.42
2018-09-08T00:50:57.827Z,93.71
2018-09-08T00:52:34.239Z,93.70
2018-09-08T00:54:13.123Z,93.73
2018-09-08T00:55:48.905Z,94.04
2018-09-08T00:57:24.976Z,93.96
2018-09-08T00:59:06.117Z,94.44
2018-09-08T01:00:41.698Z,93.76
2018-09-08T01:02:18.708Z,94.15
2018-09-08T01:03:55.068Z,94.41
2018-09-08T01:05:33.598Z,93.43
2018-09-08T01:07:14.361Z,93.60
2018-09-08T01:08:52.259Z,94.30
2018-09-08T01:10:30.460Z,94.66
2018-09-08T01:12:12.140Z,94.01
2018-09-08T01:13:50.194Z,93.69
2018-09-08T01:15:27.015Z,94.38
2018-09-08T01:17:02.350Z,94.29
2018-09-08T01:18:39.661Z,94.22
2018-09-08T01:20:21.960Z,93.78
2018-09-08T01:21:57.193Z,94.18
2018-09-08T01:23:37.616Z,94.18
2018-09-08T01:25:14.474Z,94.50
2018-09-08T01:26:50.133Z,94.06
2018-09-08T01:28:30.018Z,94.24
2018-09-08T01:30:08.372Z,94.44
2018-09-08T01:31:43.758Z,94.01
2018-09-08T01:33:21.168Z,94.14
2018-09-08T01:34:57.912Z,94.45
2018-09-08T01:36:34.647Z,94.31
2018-09-08T01:38:11.368Z,94.81
2018-09-08T01:39:47.495Z,95.10
2018-09-08T01:41:22.488Z,94.45
2018-09-08T01:42:58.128Z,94.47
2018-09-08T01:44:33.772Z,94.64
2018-09-08T01:46:09.344Z,94.74
2018-09-08T01:47:45.066Z,94.33
2018-09-08T01:49:20.430Z,94.60
2018-09-08T01:50:56.166Z,94.14
2018-09-08T01:52:31.729Z,94.32
2018-09-08T01:54:06.942Z,94.60
2018-09-08T01:55:42.031Z,94.28
2018-09-08T01:57:17.283Z,94.62
2018-09-08T01:58:52.452Z,94.63
2018-09-08T02:00:28.959Z,94.54
2018-09-08T02:02:03.866Z,94.70
2018-09-08T02:03:39.866Z,94.71
2018-09-08T02:05:19.521Z,94.68
2018-09-08T02:06:56.794Z,94.77
2018-09-08T02:08:31.892Z,94.76
2018-09-08T02:10:07.402Z,94.88
2018-09-08T02:11:43.771Z,94.79
2018-09-08T02:13:19.352Z,94.77
2018-09-08T02:14:55.345Z,94.78
2018-09-08T02:16:31.140Z,94.87
2018-09-08T02:18:07.399Z,94.85
2018-09-08T02:19:43.206Z,94.30
2018-09-08T02:21:19.291Z,94.63
2018-09-08T02:22:54.508Z,95.19
2018-09-08T02:24:30.586Z,95.06
2018-09-08T02:26:06.436Z,94.94
2018-09-08T02:27:42.967Z,94.99
2018-09-08T02:29:21.561Z,95.28
2018-09-08T02:30:58.605Z,94.96
2018-09-08T02:32:35.010Z,94.67
2018-09-08T02:34:10.905Z,95.59
2018-09-08T02:35:46.482Z,95.23
2018-09-08T02:37:21.852Z,95.12
2018-09-08T02:38:56.742Z,95.28
2018-09-08T02:40:32.191Z,94.87
2018-09-08T02:42:10.859Z,95.04
2018-09-08T02:43:45.970Z,95.60
2018-09-08T02:45:21.032Z,95.29
2018-09-08T02:46:56.057Z,95.13
2018-09-08T02:48:32.140Z,94.95
2018-09-08T02:50:17.705Z,94.93
2018-09-08T02:51:52.036Z,95.37
2018-09-08T02:53:25.438Z,95.37
2018-09-08T02:55:00.672Z,95.11
2018-09-08T02:56:33.892Z,95.33
2018-09-08T02:58:08.408Z,95.35
2018-09-08T02:59:41.858Z,95.24
2018-09-08T03:01:15.895Z,95.48
2018-09-08T03:02:49.508Z,95.29
2018-09-08T03:04:22.843Z,95.47
2018-09-08T03:05:56.371Z,95.44
2018-09-08T03:07:29.729Z,95.39
2018-09-08T03:09:03.165Z,95.01
2018-09-08T03:10:37.183Z,95.54
2018-09-08T03:12:11.420Z,95.38
2018-09-08T03:13:46.725Z,95.51
2018-09-08T03:15:20.492Z,95.23
2018-09-08T03:16:54.080Z,95.55
2018-09-08T03:18:28.195Z,95.48
2018-09-08T03:20:02.220Z,95.12
2018-09-08T03:21:36.451Z,95.43
2018-09-08T03:23:09.799Z,95.56
2018-09-08T03:24:43.530Z,95.71
2018-09-08T03:26:18.381Z,95.31
2018-09-08T03:27:51.641Z,95.50
2018-09-08T03:29:24.826Z,95.74
2018-09-08T03:30:58.584Z,95.65
2018-09-08T03:32:32.358Z,95.86
2018-09-08T03:34:06.612Z,95.79
2018-09-08T03:35:39.961Z,95.49
2018-09-08T03:37:13.842Z,95.93
2018-09-08T03:38:47.204Z,95.54
2018-09-08T03:40:20.727Z,95.86
2018-09-08T03:41:54.375Z,95.56
2018-09-08T03:43:28.101Z,95.72
2018-09-08T03:45:01.478Z,95.97
2018-09-08T03:46:36.443Z,95.57
2018-09-08T03:48:09.739Z,95.83
2018-09-08T03:49:43.548Z,96.26
2018-09-08T03:51:17.161Z,95.74
2018-09-08T03:52:50.830Z,95.54
2018-09-08T03:55:38.504Z,94.99
2018-09-08T03:57:12.296Z,95.63
2018-09-08T03:58:45.504Z,95.77
2018-09-08T04:00:18.961Z,95.80
2018-09-08T04:01:52.732Z,95.42
2018-09-08T04:03:28.228Z,95.58
2018-09-08T04:05:03.470Z,95.74
2018-09-08T04:06:38.700Z,95.53
2018-09-08T04:08:13.963Z,95.54
2018-09-08T04:09:49.863Z,95.75
2018-09-08T04:11:25.417Z,95.76
2018-09-08T04:13:00.263Z,95.71
2018-09-08T04:14:36.517Z,95.68
2018-09-08T04:16:11.420Z,95.78
2018-09-08T04:17:46.345Z,95.90
2018-09-08T04:19:21.446Z,95.81
2018-09-08T04:20:56.709Z,96.08
2018-09-08T04:22:36.191Z,95.88
2018-09-08T04:24:11.199Z,95.68
2018-09-08T04:25:46.159Z,95.92
2018-09-08T04:27:20.952Z,95.86
2018-09-08T04:28:56.310Z,96.10
2018-09-08T04:30:31.422Z,95.81
2018-09-08T04:32:06.418Z,95.96
2018-09-08T04:33:43.244Z,95.95
2018-09-08T04:35:20.048Z,95.87
2018-09-08T04:36:54.860Z,95.87
2018-09-08T04:38:29.655Z,95.83
2018-09-08T04:40:04.599Z,95.70
2018-09-08T04:41:39.783Z,95.84
2018-09-08T04:43:14.775Z,95.68
2018-09-08T04:44:50.211Z,96.13
2018-09-08T04:46:25.642Z,95.60
2018-09-08T04:48:00.562Z,96.00
2018-09-08T04:49:35.801Z,95.74
2018-09-08T04:51:19.811Z,95.36
2018-09-08T04:53:03.539Z,95.86
2018-09-08T04:54:38.427Z,96.02
2018-09-08T04:56:14.404Z,95.67
2018-09-08T04:57:49.441Z,95.85
2018-09-08T04:59:24.338Z,95.64
2018-09-08T05:00:59.431Z,95.70
2018-09-08T05:02:34.414Z,95.80
2018-09-08T05:04:11.422Z,95.58
2018-09-08T05:05:47.448Z,95.62
2018-09-08T05:07:22.489Z,95.89
2018-09-08T05:08:59.550Z,95.91
2018-09-08T05:10:35.111Z,95.77
2018-09-08T05:12:10.688Z,95.95
2018-09-08T05:13:45.596Z,95.90
2018-09-08T05:15:20.648Z,95.76
2018-09-08T05:16:55.497Z,96.17
2018-09-08T05:18:30.351Z,95.43
2018-09-08T05:20:06.104Z,95.81
2018-09-08T05:21:41.106Z,95.84
2018-09-08T05:23:20.168Z,95.69
2018-09-08T05:24:55.582Z,96.22
2018-09-08T05:26:30.776Z,95.25
2018-09-08T05:28:05.983Z,95.41
2018-09-08T05:29:42.409Z,95.47
2018-09-08T05:31:18.523Z,95.43
2018-09-08T05:32:53.434Z,95.60
2018-09-08T05:34:29.921Z,96.02
2018-09-08T05:36:05.626Z,95.56
2018-09-08T05:37:40.820Z,95.35
2018-09-08T05:39:16.673Z,95.51
2018-09-08T05:40:53.546Z,95.08
2018-09-08T05:42:30.096Z,95.61
2018-09-08T05:44:05.040Z,95.36
2018-09-08T05:45:40.425Z,95.04
2018-09-08T05:47:15.617Z,95.75
2018-09-08T05:48:58.422Z,95.21
2018-09-08T05:50:33.300Z,95.17
2018-09-08T05:52:08.137Z,95.20
2018-09-08T05:53:43.048Z,95.36
2018-09-08T05:55:18.106Z,94.99
2018-09-08T05:56:54.564Z,95.33
2018-09-08T05:58:29.708Z,95.30
2018-09-08T06:00:08.061Z,95.27
2018-09-08T06:01:44.050Z,95.38
2018-09-08T06:03:19.464Z,94.67
2018-09-08T06:04:54.819Z,94.82
2018-09-08T06:06:29.641Z,94.67
2018-09-08T06:08:04.723Z,94.64
2018-09-08T06:09:39.606Z,95.03
2018-09-08T06:11:16.324Z,94.84
2018-09-08T06:12:54.772Z,94.94
2018-09-08T06:14:32.056Z,94.35
2018-09-08T06:16:07.029Z,94.67
2018-09-08T06:17:46.392Z,94.27
2018-09-08T06:19:21.455Z,94.23
2018-09-08T06:20:57.222Z,94.26
2018-09-08T06:22:32.261Z,94.26
2018-09-08T06:24:07.304Z,94.21
2018-09-08T06:25:42.302Z,93.73
2018-09-08T06:27:17.928Z,93.32
2018-09-08T06:28:53.514Z,93.59
2018-09-08T06:30:28.916Z,92.66
2018-09-08T06:32:03.988Z,92.52
2018-09-08T06:33:40.905Z,92.59
2018-09-08T06:35:16.913Z,91.91
2018-09-08T06:36:53.558Z,92.00
2018-09-08T06:38:28.555Z,91.85
2018-09-08T06:40:03.920Z,91.99
2018-09-08T06:41:39.028Z,91.66
2018-09-08T06:43:14.623Z,91.15
2018-09-08T06:44:50.808Z,91.43
2018-09-08T06:46:26.763Z,91.25
2018-09-08T06:48:02.771Z,90.67
2018-09-08T06:49:38.555Z,90.38
2018-09-08T06:51:13.752Z,90.08
2018-09-08T06:52:49.088Z,89.80
2018-09-08T06:54:24.449Z,89.47
2018-09-08T06:55:59.483Z,89.33
2018-09-08T06:57:34.932Z,89.76
2018-09-08T06:59:09.868Z,89.63
2018-09-08T07:00:45.683Z,89.19
2018-09-08T07:02:20.788Z,88.39
2018-09-08T07:03:56.858Z,88.46
2018-09-08T07:05:33.144Z,87.95
2018-09-08T07:07:13.970Z,88.47
2018-09-08T07:08:49.977Z,87.62
2018-09-08T07:10:26.915Z,87.69
2018-09-08T07:12:01.764Z,87.50
2018-09-08T07:13:37.595Z,87.40
2018-09-08T07:15:14.898Z,86.85
2018-09-08T07:16:50.079Z,86.70
2018-09-08T07:18:25.721Z,86.77
2018-09-08T07:20:00.505Z,85.78
2018-09-08T07:21:36.878Z,85.43
2018-09-08T07:23:13.275Z,85.15
2018-09-08T07:24:50.563Z,85.42
2018-09-08T07:26:25.674Z,84.62
2018-09-08T07:28:00.873Z,84.99
2018-09-08T07:29:37.556Z,83.89
2018-09-08T07:31:13.286Z,83.73
2018-09-08T07:32:48.376Z,83.41
2018-09-08T07:34:23.604Z,82.46
2018-09-08T07:35:58.951Z,82.83
2018-09-08T07:37:34.375Z,82.50
2018-09-08T07:39:11.314Z,81.61
2018-09-08T07:40:46.253Z,81.71
2018-09-08T07:42:21.254Z,80.94
2018-09-08T07:43:58.204Z,80.44
2018-09-08T07:45:33.704Z,79.88
2018-09-08T07:47:08.606Z,79.42
2018-09-08T07:48:43.438Z,79.62
2018-09-08T07:50:18.822Z,78.50
2018-09-08T07:51:56.009Z,78.82
2018-09-08T07:53:31.047Z,77.89
2018-09-08T07:55:06.080Z,77.66
2018-09-08T07:56:43.060Z,77.05
2018-09-08T07:58:18.375Z,77.30
2018-09-08T07:59:53.556Z,76.85
2018-09-08T08:01:28.376Z,76.93
2018-09-08T08:03:04.005Z,76.13
2018-09-08T08:04:39.602Z,75.94
2018-09-08T08:06:15.335Z,75.80
2018-09-08T08:07:52.461Z,75.76
2018-09-08T08:09:29.643Z,75.49
2018-09-08T08:11:06.691Z,75.55
2018-09-08T08:12:42.036Z,75.54
2018-09-08T08:14:18.293Z,75.67
2018-09-08T08:15:53.923Z,75.33
2018-09-08T08:17:32.292Z,74.81
2018-09-08T08:19:07.924Z,75.31
2018-09-08T08:20:44.503Z,75.03
2018-09-08T08:22:23.061Z,75.46
2018-09-08T08:23:59.185Z,75.42
2018-09-08T08:25:36.631Z,75.47
2018-09-08T08:27:12.321Z,74.49
2018-09-08T08:28:49.522Z,74.54
2018-09-08T08:30:26.240Z,74.50
2018-09-08T08:32:02.408Z,74.66
2018-09-08T08:33:40.832Z,74.36
2018-09-08T08:35:18.305Z,73.96
2018-09-08T08:36:53.774Z,73.93
2018-09-08T08:38:29.291Z,74.29
2018-09-08T08:40:04.653Z,74.06
2018-09-08T08:41:40.623Z,73.67
2018-09-08T08:43:16.287Z,73.57
2018-09-08T08:44:51.848Z,73.23
2018-09-08T08:46:27.606Z,73.01
2018-09-08T08:48:05.259Z,72.83
2018-09-08T08:49:40.808Z,73.27
2018-09-08T08:51:26.768Z,72.71
2018-09-08T08:53:12.434Z,72.53
2018-09-08T08:54:52.753Z,72.32
2018-09-08T08:56:28.429Z,72.04
2018-09-08T08:58:03.969Z,71.72
2018-09-08T08:59:40.802Z,71.76
2018-09-08T09:01:16.511Z,71.85
2018-09-08T09:02:52.981Z,71.57
2018-09-08T09:04:28.071Z,70.56
2018-09-08T09:06:03.663Z,70.85
2018-09-08T09:07:40.544Z,69.98
2018-09-08T09:09:17.341Z,69.56
2018-09-08T09:10:52.450Z,69.06
2018-09-08T09:12:27.900Z,68.06
2018-09-08T09:14:03.016Z,67.21
2018-09-08T09:15:38.311Z,67.59
2018-09-08T09:17:15.052Z,67.91
2018-09-08T09:19:02.140Z,66.99
2018-09-08T09:20:48.582Z,66.65
2018-09-08T09:22:38.420Z,67.53
2018-09-08T09:24:58.078Z,67.00
2018-09-08T09:26:34.302Z,66.82
2018-09-08T09:28:10.195Z,66.36
2018-09-08T09:29:46.366Z,66.21
2018-09-08T09:31:22.202Z,65.92
2018-09-08T09:32:59.267Z,66.41
2018-09-08T09:34:34.803Z,66.62
2018-09-08T09:36:11.561Z,67.05
2018-09-08T09:37:47.208Z,65.97
2018-09-08T09:39:22.712Z,66.17
2018-09-08T09:40:57.709Z,65.22
2018-09-08T09:42:32.980Z,65.87
2018-09-08T09:44:08.640Z,65.38
2018-09-08T09:45:45.406Z,65.21
2018-09-08T09:47:20.798Z,65.52
2018-09-08T09:49:01.093Z,66.01
2018-09-08T09:50:36.158Z,65.77
2018-09-08T09:52:11.524Z,65.84
2018-09-08T09:53:47.231Z,65.91
2018-09-08T09:55:24.152Z,64.96
2018-09-08T09:57:00.235Z,64.85
2018-09-08T09:58:35.755Z,64.68
2018-09-08T10:00:15.781Z,64.61
2018-09-08T10:01:57.889Z,63.79
2018-09-08T10:03:35.728Z,63.93
2018-09-08T10:05:18.908Z,63.92
2018-09-08T10:06:54.781Z,63.66
2018-09-08T10:08:31.035Z,62.91
2018-09-08T10:10:06.218Z,62.45
2018-09-08T10:11:41.864Z,62.64
2018-09-08T10:13:17.105Z,60.00
2018-09-08T10:14:53.484Z,59.62
2018-09-08T10:16:29.635Z,58.02
2018-09-08T10:18:08.458Z,58.35
2018-09-08T10:19:45.235Z,58.34
2018-09-08T10:21:20.654Z,58.08
2018-09-08T10:22:55.826Z,57.73
2018-09-08T10:24:31.920Z,56.69
2018-09-08T10:26:07.141Z,55.50
2018-09-08T10:27:42.348Z,54.96
2018-09-08T10:29:17.263Z,55.34
2018-09-08T10:30:54.496Z,53.06
2018-09-08T10:32:30.880Z,52.72
2018-09-08T10:34:06.160Z,54.56
2018-09-08T10:35:43.059Z,53.59
2018-09-08T10:37:18.118Z,52.54
2018-09-08T10:38:53.947Z,55.04
2018-09-08T10:40:30.826Z,53.03
2018-09-08T10:42:06.780Z,52.62
2018-09-08T10:43:43.791Z,52.56
2018-09-08T10:45:22.532Z,53.16
2018-09-08T10:46:58.813Z,52.76
2018-09-08T10:48:34.586Z,51.87
2018-09-08T10:50:12.161Z,51.74
2018-09-08T10:52:00.456Z,51.56
2018-09-08T10:53:39.199Z,51.31
2018-09-08T10:55:14.500Z,49.28
2018-09-08T10:56:52.729Z,50.63
2018-09-08T10:58:29.202Z,50.54
2018-09-08T11:00:08.204Z,50.73
2018-09-08T11:01:45.707Z,52.11
2018-09-08T11:03:23.609Z,52.22
2018-09-08T11:04:58.922Z,52.62
2018-09-08T11:06:37.937Z,52.65
2018-09-08T11:08:13.089Z,52.75
2018-09-08T11:09:49.381Z,52.38
2018-09-08T11:11:26.517Z,53.82
2018-09-08T11:13:03.225Z,51.72
2018-09-08T11:14:39.332Z,51.03
2018-09-08T11:16:18.014Z,49.16
2018-09-08T11:17:58.814Z,49.96
2018-09-08T11:19:37.226Z,50.17
2018-09-08T11:21:14.290Z,50.33
2018-09-08T11:22:53.048Z,50.61
2018-09-08T11:24:31.537Z,49.83
2018-09-08T11:26:06.943Z,50.56
2018-09-08T11:27:45.938Z,51.46
2018-09-08T11:29:23.151Z,51.30
2018-09-08T11:30:58.580Z,50.94
2018-09-08T11:32:35.957Z,50.26
2018-09-08T11:34:11.785Z,50.96
2018-09-08T11:35:47.639Z,51.17
2018-09-08T11:37:22.835Z,51.79
2018-09-08T11:38:58.439Z,52.03
2018-09-08T11:40:34.407Z,51.97
2018-09-08T11:42:10.827Z,51.61
2018-09-08T11:43:46.702Z,50.58
2018-09-08T11:45:23.317Z,50.07
2018-09-08T11:47:00.150Z,51.01
2018-09-08T11:48:37.032Z,50.09
2018-09-08T11:50:14.931Z,49.53
2018-09-08T11:51:51.590Z,48.62
2018-09-08T11:53:27.705Z,46.31
2018-09-08T11:55:03.650Z,47.13
2018-09-08T11:56:39.489Z,45.42
2018-09-08T11:58:16.240Z,45.70
2018-09-08T11:59:51.734Z,46.27
2018-09-08T12:01:26.983Z,47.27
2018-09-08T12:03:02.278Z,46.14
2018-09-08T12:04:37.908Z,45.22
2018-09-08T12:06:13.864Z,45.53
2018-09-08T12:07:50.663Z,45.91
2018-09-08T12:09:28.621Z,43.66
2018-09-08T12:11:05.744Z,44.81
2018-09-08T12:12:56.012Z,43.83
2018-09-08T12:14:31.451Z,43.98
2018-09-08T12:16:08.713Z,45.06
2018-09-08T12:17:45.408Z,43.29
2018-09-08T12:19:20.693Z,43.98
2018-09-08T12:20:56.229Z,41.85
2018-09-08T12:22:31.773Z,42.62
2018-09-08T12:24:07.148Z,42.88
2018-09-08T12:25:43.702Z,43.21
2018-09-08T12:27:19.906Z,43.60
2018-09-08T12:29:00.289Z,43.89
2018-09-08T12:30:35.972Z,46.05
2018-09-08T12:32:13.665Z,47.14
2018-09-08T12:33:50.744Z,46.30
2018-09-08T12:35:25.753Z,46.01
2018-09-08T12:37:01.221Z,46.52
2018-09-08T12:38:36.726Z,46.05
2018-09-08T12:43:36.101Z,45.24
2018-09-08T12:45:13.081Z,45.17
2018-09-08T12:46:52.239Z,44.82
2018-09-08T12:48:28.405Z,45.63
2018-09-08T12:50:06.386Z,45.99
2018-09-08T12:51:47.804Z,45.16
2018-09-08T12:53:23.887Z,45.22
2018-09-08T12:55:00.087Z,44.85
2018-09-08T12:56:34.976Z,45.64
2018-09-08T12:58:14.066Z,43.57
2018-09-08T12:59:50.120Z,44.38
2018-09-08T13:01:26.469Z,43.83
2018-09-08T13:03:05.605Z,43.65
2018-09-08T13:04:43.936Z,42.32
2018-09-08T13:06:18.887Z,41.50
2018-09-08T13:07:54.997Z,41.78
2018-09-08T13:09:29.887Z,42.44
2018-09-08T13:11:05.646Z,42.05
2018-09-08T13:12:40.597Z,42.64
2018-09-08T13:14:17.427Z,43.37
2018-09-08T13:15:54.634Z,40.86
2018-09-08T13:17:29.679Z,42.52
2018-09-08T13:19:05.906Z,43.19
2018-09-08T13:20:40.771Z,42.80
2018-09-08T13:22:16.531Z,44.41
2018-09-08T13:23:55.055Z,42.98
2018-09-08T13:25:30.274Z,42.85
2018-09-08T13:27:08.124Z,42.31
2018-09-08T13:28:43.364Z,42.71
2018-09-08T13:30:21.422Z,43.17
2018-09-08T13:32:16.266Z,44.56
2018-09-08T13:33:51.468Z,43.69
2018-09-08T13:35:26.564Z,42.79
2018-09-08T13:37:03.077Z,42.63
2018-09-08T13:38:38.259Z,43.92
2018-09-08T13:40:17.604Z,43.65
2018-09-08T13:41:52.670Z,42.62
2018-09-08T13:43:28.853Z,41.61
2018-09-08T13:45:07.659Z,42.60
2018-09-08T13:46:45.286Z,43.24
2018-09-08T13:48:21.718Z,42.07
2018-09-08T13:49:57.099Z,45.11
2018-09-08T13:51:34.314Z,41.39
2018-09-08T13:53:12.543Z,41.51
2018-09-08T13:54:49.582Z,42.05
2018-09-08T13:56:25.925Z,41.85
2018-09-08T13:58:02.240Z,40.92
2018-09-08T13:59:38.728Z,42.41
2018-09-08T14:01:16.065Z,41.42
2018-09-08T14:02:52.568Z,42.25
2018-09-08T14:04:27.630Z,41.86
2018-09-08T14:06:03.381Z,40.92
2018-09-08T14:08:00.401Z,39.96
2018-09-08T14:09:39.809Z,41.34
2018-09-08T14:11:25.575Z,39.92
2018-09-08T14:13:00.641Z,40.94
2018-09-08T14:14:37.620Z,42.13
2018-09-08T14:16:17.592Z,42.73
2018-09-08T14:18:02.533Z,42.82
2018-09-08T14:21:31.346Z,42.45
2018-09-08T14:23:12.346Z,42.55
2018-09-08T14:24:48.567Z,43.04
2018-09-08T14:26:24.852Z,42.50
2018-09-08T14:28:02.850Z,43.05
2018-09-08T14:29:39.812Z,42.50
2018-09-08T14:31:19.044Z,41.89
2018-09-08T14:32:54.497Z,42.94
2018-09-08T14:34:29.829Z,42.50
2018-09-08T14:36:07.278Z,42.62
2018-09-08T14:37:42.402Z,43.80
2018-09-08T14:39:18.322Z,42.72
2018-09-08T14:40:53.127Z,43.18
2018-09-08T14:42:33.042Z,42.14
2018-09-08T14:44:11.563Z,42.76
2018-09-08T14:45:58.790Z,41.55
2018-09-08T14:47:35.751Z,42.86
2018-09-08T14:49:23.850Z,43.73
2018-09-08T14:56:27.624Z,43.47
2018-09-08T14:58:08.728Z,43.91
2018-09-08T14:59:48.598Z,45.03
2018-09-08T15:01:27.308Z,42.16
2018-09-08T15:03:10.259Z,43.51
2018-09-08T15:04:54.929Z,42.60
2018-09-08T15:06:34.320Z,42.54
2018-09-08T20:35:33.882Z,74.72
2018-09-08T20:37:15.669Z,74.87
2018-09-08T20:39:01.332Z,74.48
2018-09-08T20:40:42.865Z,74.33
2018-09-08T20:42:37.542Z,75.38
2018-09-08T20:44:14.937Z,75.13
2018-09-08T20:47:42.347Z,74.38
2018-09-08T20:52:07.024Z,73.80
2018-09-08T20:53:45.921Z,74.70
2018-09-08T20:55:29.663Z,74.07
2018-09-08T20:57:12.272Z,74.19
2018-09-08T20:58:52.857Z,74.54
2018-09-08T21:00:32.115Z,74.72
2018-09-08T21:02:15.704Z,75.03
2018-09-08T21:03:55.449Z,74.82
2018-09-08T21:05:32.917Z,74.88
2018-09-08T21:07:09.559Z,74.65
2018-09-08T21:08:49.362Z,74.57
2018-09-08T21:10:31.058Z,75.27
2018-09-08T21:12:15.493Z,75.37
2018-09-08T21:13:52.487Z,74.89
2018-09-08T21:15:34.872Z,75.03
2018-09-08T21:17:17.735Z,75.08
2018-09-08T21:18:53.901Z,75.33
2018-09-08T21:20:35.637Z,74.71
2018-09-08T21:22:16.359Z,75.09
2018-09-08T21:23:55.189Z,75.67
2018-09-08T21:25:34.856Z,74.70
2018-09-08T21:27:13.629Z,74.70
2018-09-08T21:28:50.518Z,75.32
2018-09-08T21:30:26.850Z,75.59
2018-09-08T21:32:04.240Z,74.81
2018-09-08T21:33:40.687Z,74.76
2018-09-08T21:35:17.515Z,75.04
2018-09-08T21:36:56.622Z,75.10
2018-09-08T21:38:35.604Z,75.25
2018-09-08T21:40:18.790Z,75.38
2018-09-08T21:41:56.605Z,75.14
2018-09-08T21:43:37.330Z,75.53
2018-09-08T21:45:17.359Z,74.56
2018-09-08T21:46:53.916Z,75.01
2018-09-08T21:48:30.324Z,75.86
2018-09-08T21:50:10.781Z,75.43
2018-09-08T21:51:47.334Z,75.66
2018-09-08T21:55:14.887Z,75.22
2018-09-08T21:56:55.633Z,74.99
2018-09-08T21:58:35.884Z,75.89
2018-09-08T22:00:17.279Z,75.35
2018-09-08T22:01:56.988Z,75.90
2018-09-08T22:03:41.568Z,75.49
2018-09-08T22:05:22.295Z,75.91
2018-09-08T22:07:02.013Z,75.59
2018-09-08T22:08:42.822Z,76.31
2018-09-08T22:10:21.503Z,75.62
2018-09-08T22:11:58.722Z,75.86
2018-09-08T22:13:44.214Z,76.25
2018-09-08T22:15:26.076Z,75.53
2018-09-08T22:17:04.879Z,75.58
2018-09-08T22:18:41.917Z,76.27
2018-09-08T22:20:18.764Z,75.96
2018-09-08T22:23:46.344Z,75.85
2018-09-08T22:25:26.642Z,76.34
2018-09-08T22:27:14.244Z,75.86
2018-09-08T22:28:54.928Z,75.26
2018-09-08T22:30:38.697Z,76.58
2018-09-08T22:32:16.533Z,76.43
2018-09-08T22:33:57.604Z,75.54
2018-09-08T22:35:40.149Z,75.63
2018-09-08T22:37:20.694Z,76.44
2018-09-08T22:39:00.381Z,76.29
2018-09-08T22:40:37.941Z,76.43
2018-09-08T22:42:16.358Z,75.71
2018-09-08T22:43:59.968Z,76.90
2018-09-08T22:45:36.777Z,76.41
2018-09-08T22:47:17.544Z,76.32
2018-09-08T22:48:56.993Z,76.22
2018-09-08T22:50:36.040Z,75.71
2018-09-08T22:52:13.406Z,76.20
2018-09-08T22:53:48.759Z,76.24
2018-09-08T22:55:23.704Z,76.50
2018-09-08T22:56:59.613Z,76.62
2018-09-08T22:58:34.840Z,76.45
2018-09-08T23:00:13.697Z,75.70
2018-09-08T23:01:50.388Z,76.34
2018-09-08T23:03:27.760Z,76.70
2018-09-08T23:05:10.085Z,76.25
2018-09-08T23:06:45.508Z,76.45
2018-09-08T23:08:23.305Z,76.40
2018-09-08T23:10:00.475Z,75.98
2018-09-08T23:11:43.628Z,76.31
2018-09-08T23:13:31.568Z,75.82
2018-09-08T23:15:12.380Z,76.04
2018-09-08T23:16:54.027Z,76.55
2018-09-08T23:18:30.248Z,76.94
2018-09-08T23:20:06.670Z,76.25
2018-09-08T23:21:45.330Z,76.19
2018-09-08T23:23:27.978Z,75.91
2018-09-08T23:25:07.393Z,76.02
2018-09-08T23:26:44.493Z,76.92
2018-09-08T23:28:23.544Z,76.67
2018-09-08T23:30:03.482Z,76.53
2018-09-08T23:31:42.638Z,75.89
2018-09-08T23:33:21.281Z,76.77
2018-09-08T23:34:59.595Z,77.00
2018-09-08T23:36:42.777Z,77.01
2018-09-08T23:38:22.827Z,76.57
2018-09-08T23:45:03.230Z,76.87
2018-09-08T23:46:39.333Z,75.88
2018-09-08T23:48:15.675Z,75.82
2018-09-08T23:49:51.258Z,76.40
2018-09-08T23:51:26.298Z,76.36
2018-09-08T23:53:03.332Z,76.76
2018-09-08T23:54:39.594Z,76.98
2018-09-08T23:56:15.981Z,76.65
2018-09-08T23:57:52.328Z,76.60
2018-09-08T23:59:27.459Z,76.97
